Paris, TN (38242)

10:16 PM CDT on July 27, 2015 (GMT -0500)
Highway 69 N | | Change Station
CLOSE
Current Station
Personal Weather Station
Location: Paris, TN
Elevation: 495 ft
Nearby Weather Stations
Active Advisory: Heat Advisory Active Notice: Public Information Statement

Elev 495 ft 36.31 °N, 88.34 °W | Updated 14 minutes ago

Partly Cloudy
Partly Cloudy
77.5 °F
Feels Like 79 °F
N
0.0
Wind Variable Wind from East
Gusts 0.0 mph

Today
High -- | Low -- °F
--% Chance of Precip.
Yesterday
High -- | Low -- °F
Precip. -- in
5:55 AM 8:03 PM
Waxing Gibbous, 86% visible
Pressure 29.99 in
Visibility 10.0 miles
Clouds Mostly Cloudy 7000 ft
Heat Index 79 °F
Dew Point 77 °F
Humidity 97%
Rainfall 0.00 in
Snow Depth Not available.
UV 0.0 out of 12
Pollen 4.10 out of 12
Air Quality Not available.
Flu Activity Not available.
METAR KCEY 280255Z AUTO 00000KT 10SM BKN070 27/27 A2999 RMK AO1

More Conditions Fewer Conditions

Pressure 29.99 in
Visibility 10.0 miles
Clouds Mostly Cloudy 7000 ft
Heat Index 79 °F
Dew Point 77 °F
Humidity 97%
Rainfall 0.00 in
Snow Depth Not available.
UV 0.0 out of 12
Pollen 4.10 out of 12
Air Quality Not available.
Flu Activity Not available.
METAR KCEY 280255Z AUTO 00000KT 10SM BKN070 27/27 A2999 RMK AO1

More Conditions Fewer Conditions

10-Day Weather Forecast

×

Almanac

Astronomy

Jul. 27, 2015 Rise Set
Actual Time
Civil Twilight
Nautical Twilight
Astronomical Twilight
Moon
Length of Visible Light
Length of Day
Tomorrow will be .
, % of the Moon is Illuminated

Today's Extremes

State Highs State Lows

Community

WunderPhotos

Upload Photos

1,841,784 photos uploaded!

WunderBlogs® & News

Nearby

Air Quality

  Air Quality AQ Index Pollutant
Not available.

Snow Depth

Station Depth Elevation

Earthquake Activity

City Distance Mag. Time & Date
Minimum magnitude displayed is 2.5.

Coastal Water Temperatures

Place Temperature

Stations

Nearby Weather Stations

Station Location Temp. Windchill Dew Point Humidity Wind Precip. Elev Updated Type
                   
Heat Advisory
Statement as of 3:27 PM CDT on July 27, 2015

... Heat advisory in effect from 11 am to 8 PM CDT Tuesday...

The National Weather Service in Memphis has issued a heat
advisory... which is in effect from 11 am to 8 PM CDT Tuesday.

* Heat index readings... between 105 and 110 degrees.

* Timing... hottest part of the day between 11 am and 8 PM.

* Impacts... increased risk of heat-related illnesses including
heat exhaustion and heat stroke if you do not take the proper
precautions.

Precautionary/preparedness actions...

A heat advisory means that a period of hot temperatures is
expected. The combination of hot temperatures and high humidity
will combine to create a situation in which heat illnesses are
possible. Drink plenty of fluids... stay in an air-conditioned
room... stay out of the sun... and check up on relatives and
neighbors.